createdAt,value
2017-11-09T00:02:18.554Z,5.10
2017-11-09T00:04:51.738Z,5.10
2017-11-09T00:07:19.209Z,5.20
2017-11-09T00:09:47.506Z,5.30
2017-11-09T00:12:15.749Z,5.20
2017-11-09T00:14:43.222Z,5.20
2017-11-09T00:17:10.725Z,5.30
2017-11-09T00:19:38.233Z,5.20
2017-11-09T00:22:05.742Z,5.20
2017-11-09T00:24:33.211Z,5.20
2017-11-09T00:27:00.717Z,5.20
2017-11-09T00:29:28.177Z,5.10
2017-11-09T00:31:55.657Z,5.20
2017-11-09T00:34:23.136Z,5.20
2017-11-09T00:36:50.639Z,5.10
2017-11-09T00:39:18.113Z,5.10
2017-11-09T00:41:46.358Z,5.10
2017-11-09T00:44:13.845Z,5.10
2017-11-09T00:46:41.304Z,5.10
2017-11-09T00:49:09.572Z,5.10
2017-11-09T00:51:37.045Z,5.00
2017-11-09T00:54:05.288Z,5.10
2017-11-09T00:56:32.800Z,5.10
2017-11-09T00:59:00.296Z,5.10
2017-11-09T01:01:27.773Z,5.20
2017-11-09T01:03:55.276Z,5.20
2017-11-09T01:06:22.727Z,5.10
2017-11-09T01:08:50.197Z,5.10
2017-11-09T01:11:17.683Z,5.10
2017-11-09T01:13:45.169Z,5.10
2017-11-09T01:16:13.437Z,5.10
2017-11-09T01:18:40.903Z,5.10
2017-11-09T01:21:08.417Z,5.10
2017-11-09T01:23:35.905Z,5.10
2017-11-09T01:26:03.392Z,5.20
2017-11-09T01:28:30.882Z,5.20
2017-11-09T01:30:58.342Z,5.20
2017-11-09T01:33:25.824Z,5.20
2017-11-09T01:35:53.297Z,5.20
2017-11-09T01:38:20.806Z,5.20
2017-11-09T01:40:48.279Z,5.30
2017-11-09T01:43:15.782Z,5.30
2017-11-09T01:45:43.237Z,5.20
2017-11-09T01:48:10.736Z,5.20
2017-11-09T01:50:38.964Z,5.20
2017-11-09T01:53:06.424Z,5.20
2017-11-09T01:55:33.947Z,5.20
2017-11-09T01:58:01.400Z,5.20
2017-11-09T02:00:28.897Z,5.10
2017-11-09T02:02:56.391Z,5.20
2017-11-09T02:05:24.661Z,5.10
2017-11-09T02:07:52.141Z,5.10
2017-11-09T02:10:20.415Z,5.10
2017-11-09T02:12:48.685Z,5.10
2017-11-09T02:15:16.942Z,5.10
2017-11-09T02:17:44.412Z,5.10
2017-11-09T02:20:12.681Z,5.10
2017-11-09T02:22:40.932Z,5.10
2017-11-09T02:25:08.436Z,5.10
2017-11-09T02:27:36.656Z,5.00
2017-11-09T02:30:04.138Z,5.00
2017-11-09T02:32:31.628Z,5.10
2017-11-09T02:34:59.898Z,5.10
2017-11-09T02:37:28.144Z,5.10
2017-11-09T02:39:55.614Z,5.10
2017-11-09T02:42:23.108Z,5.20
2017-11-09T02:44:51.337Z,5.20
2017-11-09T02:47:18.834Z,5.20
2017-11-09T02:49:47.082Z,5.20
2017-11-09T02:52:14.572Z,5.20
2017-11-09T02:54:42.833Z,5.20
2017-11-09T02:57:10.296Z,5.20
2017-11-09T02:59:38.574Z,5.20
2017-11-09T03:02:06.816Z,5.10
2017-11-09T03:04:34.285Z,5.10
2017-11-09T03:07:01.792Z,5.20
2017-11-09T03:09:29.252Z,5.20
2017-11-09T03:11:56.744Z,5.10
2017-11-09T03:14:24.236Z,5.20
2017-11-09T03:16:52.494Z,5.20
2017-11-09T03:19:19.981Z,5.10
2017-11-09T03:21:48.227Z,5.20
2017-11-09T03:24:15.709Z,5.20
2017-11-09T03:26:43.931Z,5.20
2017-11-09T03:29:11.478Z,5.20
2017-11-09T03:31:38.957Z,5.20
2017-11-09T03:34:06.457Z,5.20
2017-11-09T03:36:33.913Z,5.20
2017-11-09T03:39:01.380Z,5.10
2017-11-09T03:41:29.665Z,5.10
2017-11-09T03:43:57.928Z,5.10
2017-11-09T03:46:26.184Z,5.10
2017-11-09T03:48:53.687Z,5.10
2017-11-09T03:51:21.194Z,5.10
2017-11-09T03:53:48.681Z,5.10
2017-11-09T03:56:16.191Z,5.10
2017-11-09T03:58:43.655Z,5.20
2017-11-09T04:01:11.152Z,5.20
2017-11-09T04:03:38.624Z,5.30
2017-11-09T04:06:06.856Z,5.30
2017-11-09T04:08:34.372Z,5.30
2017-11-09T04:11:01.850Z,5.30
2017-11-09T04:13:29.340Z,5.40
2017-11-09T04:15:56.832Z,5.30
2017-11-09T04:18:25.092Z,5.30
2017-11-09T04:20:52.561Z,5.30
2017-11-09T04:23:20.020Z,5.30
2017-11-09T04:25:48.273Z,5.20
2017-11-09T04:28:15.743Z,5.20
2017-11-09T04:30:43.241Z,5.20
2017-11-09T04:33:10.733Z,5.20
2017-11-09T04:35:38.216Z,5.20
2017-11-09T04:38:05.689Z,5.20
2017-11-09T04:40:33.549Z,5.20
2017-11-09T04:43:01.008Z,5.20
2017-11-09T04:45:28.472Z,5.20
2017-11-09T04:47:55.988Z,5.30
2017-11-09T04:50:23.443Z,5.30
2017-11-09T04:52:50.949Z,5.20
2017-11-09T04:55:18.421Z,5.20
2017-11-09T04:57:46.695Z,5.20
2017-11-09T05:00:14.945Z,5.20
2017-11-09T05:02:42.437Z,5.20
2017-11-09T05:05:10.705Z,5.20
2017-11-09T05:07:38.957Z,5.20
2017-11-09T05:10:06.485Z,5.20
2017-11-09T05:12:33.944Z,5.20
2017-11-09T05:15:01.401Z,5.20
2017-11-09T05:17:28.893Z,5.10
2017-11-09T05:19:56.413Z,5.10
2017-11-09T05:22:23.877Z,5.20
2017-11-09T05:24:51.401Z,5.20
2017-11-09T05:27:19.622Z,5.30
2017-11-09T05:29:47.142Z,5.30
2017-11-09T05:32:15.384Z,5.20
2017-11-09T05:34:42.887Z,5.20
2017-11-09T05:37:10.395Z,5.20
2017-11-09T05:39:37.858Z,5.20
2017-11-09T05:42:05.352Z,5.10
2017-11-09T05:44:32.852Z,5.20
2017-11-09T05:47:00.316Z,5.20
2017-11-09T05:49:28.534Z,5.20
2017-11-09T05:51:56.794Z,5.20
2017-11-09T05:54:25.045Z,5.20
2017-11-09T05:56:52.573Z,5.20
2017-11-09T05:59:20.076Z,5.20
2017-11-09T06:01:47.572Z,5.20
2017-11-09T06:04:15.085Z,5.20
2017-11-09T06:06:42.565Z,5.10
2017-11-09T06:09:10.070Z,5.10
2017-11-09T06:11:37.571Z,5.10
2017-11-09T06:14:05.073Z,5.10
2017-11-09T06:16:32.538Z,5.10
2017-11-09T06:19:00.005Z,5.10
2017-11-09T06:21:27.504Z,5.10
2017-11-09T06:23:54.977Z,5.20
2017-11-09T06:26:23.217Z,5.20
2017-11-09T06:28:50.706Z,5.20
2017-11-09T06:31:18.216Z,5.20
2017-11-09T06:33:45.688Z,5.20
2017-11-09T06:36:13.225Z,5.20
2017-11-09T06:38:40.674Z,5.20
2017-11-09T06:41:08.188Z,5.20
2017-11-09T06:43:35.673Z,5.30
2017-11-09T06:46:03.922Z,5.30
2017-11-09T06:48:31.405Z,5.30
2017-11-09T06:50:59.651Z,5.30
2017-11-09T06:53:27.175Z,5.20
2017-11-09T06:55:54.652Z,5.30
2017-11-09T06:58:22.160Z,5.30
2017-11-09T07:00:50.394Z,5.20
2017-11-09T07:03:17.887Z,5.20
2017-11-09T07:05:46.120Z,5.30
2017-11-09T07:08:13.613Z,5.30
2017-11-09T07:10:41.092Z,5.40
2017-11-09T07:13:09.387Z,5.30
2017-11-09T07:15:36.888Z,5.30
2017-11-09T07:18:04.381Z,5.30
2017-11-09T07:20:32.656Z,5.30
2017-11-09T07:23:00.914Z,5.30
2017-11-09T07:25:28.393Z,5.30
2017-11-09T07:27:56.658Z,5.30
2017-11-09T07:30:24.164Z,5.30
2017-11-09T07:32:51.676Z,5.30
2017-11-09T07:35:19.148Z,5.40
2017-11-09T07:37:47.390Z,5.40
2017-11-09T07:40:14.894Z,5.40
2017-11-09T07:42:43.139Z,5.40
2017-11-09T07:45:10.656Z,5.30
2017-11-09T07:47:38.231Z,5.40
2017-11-09T07:50:05.717Z,5.50
2017-11-09T07:52:33.202Z,5.50
2017-11-09T07:55:01.456Z,5.50
2017-11-09T07:57:28.976Z,5.50
2017-11-09T07:59:56.446Z,5.40
2017-11-09T08:02:23.955Z,5.30
2017-11-09T08:04:52.209Z,5.40
2017-11-09T08:07:19.680Z,5.40
2017-11-09T08:09:47.953Z,5.40
2017-11-09T08:12:15.446Z,5.40
2017-11-09T08:14:42.951Z,5.40
2017-11-09T08:17:10.401Z,5.50
2017-11-09T08:19:37.915Z,5.90
2017-11-09T08:22:06.145Z,6.00
2017-11-09T08:24:34.852Z,6.10
2017-11-09T08:27:04.104Z,6.00
2017-11-09T08:29:33.128Z,5.80
2017-11-09T08:32:02.341Z,5.90
2017-11-09T08:34:29.811Z,5.90
2017-11-09T08:36:58.068Z,5.90
2017-11-09T08:39:25.553Z,5.90
2017-11-09T08:41:53.055Z,5.80
2017-11-09T08:44:20.541Z,5.80
2017-11-09T08:46:48.035Z,5.80
2017-11-09T08:49:16.294Z,5.90
2017-11-09T08:51:43.816Z,5.90
2017-11-09T08:54:11.300Z,5.90
2017-11-09T08:56:38.801Z,5.90
2017-11-09T08:59:06.309Z,5.90
2017-11-09T09:01:33.833Z,5.80
2017-11-09T09:04:01.297Z,5.80
2017-11-09T09:06:28.777Z,5.80
2017-11-09T09:08:56.284Z,5.80
2017-11-09T09:11:24.533Z,5.80
2017-11-09T09:13:53.659Z,5.80
2017-11-09T09:16:21.166Z,5.70
2017-11-09T09:18:48.672Z,5.80
2017-11-09T09:21:17.129Z,5.90
2017-11-09T09:23:44.653Z,5.90
2017-11-09T09:26:12.933Z,6.00
2017-11-09T09:28:51.176Z,6.00
2017-11-09T09:31:18.664Z,6.00
2017-11-09T09:34:05.324Z,5.90
2017-11-09T09:36:33.895Z,5.90
2017-11-09T09:39:13.423Z,6.00
2017-11-09T09:41:40.933Z,6.00
2017-11-09T09:44:08.412Z,6.00
2017-11-09T09:46:35.893Z,6.00
2017-11-09T09:49:03.459Z,6.00
2017-11-09T09:51:30.970Z,5.90
2017-11-09T09:53:59.201Z,6.00
2017-11-09T09:56:26.686Z,6.00
2017-11-09T09:58:54.187Z,6.10
2017-11-09T10:01:21.764Z,6.10
2017-11-09T10:03:49.273Z,6.10
2017-11-09T10:06:16.747Z,6.10
2017-11-09T10:08:45.004Z,6.20
2017-11-09T10:11:12.499Z,6.20
2017-11-09T10:13:40.078Z,6.10
2017-11-09T10:16:07.569Z,6.10
2017-11-09T10:18:35.035Z,6.20
2017-11-09T10:21:02.541Z,6.10
2017-11-09T10:23:30.060Z,6.20
2017-11-09T10:25:57.581Z,6.20
2017-11-09T10:28:25.105Z,6.20
2017-11-09T10:30:53.341Z,6.20
2017-11-09T10:33:20.859Z,6.20
2017-11-09T10:35:48.336Z,6.10
2017-11-09T10:38:15.807Z,6.20
2017-11-09T10:40:43.297Z,6.40
2017-11-09T10:43:10.794Z,6.40
2017-11-09T10:45:38.293Z,6.40
2017-11-09T10:48:05.777Z,6.40
2017-11-09T10:50:33.262Z,6.40
2017-11-09T10:53:00.764Z,6.40
2017-11-09T10:55:28.272Z,6.50
2017-11-09T10:57:56.654Z,6.50
2017-11-09T11:00:29.804Z,6.50
2017-11-09T11:02:57.291Z,6.50
2017-11-09T11:05:25.550Z,6.60
2017-11-09T11:07:53.058Z,6.60
2017-11-09T11:10:20.620Z,6.60
2017-11-09T11:12:48.080Z,6.60
2017-11-09T11:15:15.579Z,6.40
2017-11-09T11:17:43.112Z,6.30
2017-11-09T11:20:10.587Z,6.30
2017-11-09T11:22:38.064Z,6.50
2017-11-09T11:25:05.584Z,6.60
2017-11-09T11:27:33.103Z,6.50
2017-11-09T11:30:01.384Z,6.50
2017-11-09T11:32:29.648Z,6.50
2017-11-09T11:34:57.900Z,6.60
2017-11-09T11:37:25.416Z,6.60
2017-11-09T11:39:52.920Z,6.60
2017-11-09T11:42:20.398Z,6.70
2017-11-09T11:44:48.675Z,6.60
2017-11-09T11:47:16.169Z,6.70
2017-11-09T11:49:43.661Z,6.60
2017-11-09T11:52:11.132Z,6.60
2017-11-09T11:54:38.678Z,6.60
2017-11-09T11:57:06.178Z,6.60
2017-11-09T11:59:34.446Z,6.50
2017-11-09T12:02:02.683Z,6.60
2017-11-09T12:04:30.188Z,6.50
2017-11-09T12:06:58.436Z,6.70
2017-11-09T12:09:25.897Z,6.70
2017-11-09T12:11:53.386Z,6.60
2017-11-09T12:14:21.669Z,6.40
2017-11-09T12:16:49.193Z,6.40
2017-11-09T12:19:18.245Z,6.50
2017-11-09T12:21:45.719Z,6.40
2017-11-09T12:24:13.201Z,6.40
2017-11-09T12:26:40.669Z,6.40
2017-11-09T12:29:08.967Z,6.50
2017-11-09T12:31:37.209Z,6.50
2017-11-09T12:34:04.728Z,6.50
2017-11-09T12:36:32.295Z,6.50
2017-11-09T12:38:59.791Z,6.60
2017-11-09T12:41:27.298Z,6.70
2017-11-09T12:43:54.809Z,6.70
2017-11-09T12:46:22.292Z,6.50
2017-11-09T12:48:49.841Z,6.50
2017-11-09T12:51:17.314Z,6.60
2017-11-09T12:53:45.572Z,6.50
2017-11-09T12:56:13.829Z,6.60
2017-11-09T12:58:41.312Z,6.60
2017-11-09T13:01:08.828Z,6.60
2017-11-09T13:03:36.293Z,6.70
2017-11-09T13:06:03.813Z,6.60
2017-11-09T13:08:32.118Z,6.70
2017-11-09T13:10:59.630Z,6.70
2017-11-09T13:13:27.177Z,6.70
2017-11-09T13:15:54.668Z,6.70
2017-11-09T13:18:22.153Z,6.60
2017-11-09T13:20:49.669Z,6.80
2017-11-09T13:23:17.132Z,6.80
2017-11-09T13:25:45.408Z,6.90
2017-11-09T13:28:13.670Z,6.80
2017-11-09T13:30:41.284Z,6.80
2017-11-09T13:33:08.790Z,6.70
2017-11-09T13:35:37.090Z,6.90
2017-11-09T13:38:05.373Z,6.80
2017-11-09T13:40:33.610Z,6.90
2017-11-09T13:43:01.092Z,6.80
2017-11-09T13:45:29.378Z,6.80
2017-11-09T13:47:57.626Z,6.90
2017-11-09T13:50:25.150Z,6.90
2017-11-09T13:52:52.697Z,6.80
2017-11-09T13:55:20.201Z,6.90
2017-11-09T13:57:48.468Z,6.80
2017-11-09T14:00:15.938Z,6.80
2017-11-09T14:02:43.403Z,6.80
2017-11-09T14:05:14.885Z,6.80
2017-11-09T14:07:43.116Z,6.70
2017-11-09T14:10:11.470Z,6.70
2017-11-09T14:12:38.933Z,6.60
2017-11-09T14:15:06.417Z,6.60
2017-11-09T14:17:33.914Z,6.60
2017-11-09T14:20:02.187Z,6.50
2017-11-09T14:22:30.451Z,6.60
2017-11-09T14:24:58.737Z,6.50
2017-11-09T14:27:27.017Z,6.60
2017-11-09T14:29:55.804Z,6.50
2017-11-09T14:32:24.070Z,6.50
2017-11-09T14:34:52.305Z,6.50
2017-11-09T14:37:19.807Z,6.50
2017-11-09T14:39:47.316Z,6.50
2017-11-09T14:42:14.824Z,6.50
2017-11-09T14:44:42.357Z,6.40
2017-11-09T14:47:09.824Z,6.40
2017-11-09T14:49:37.333Z,6.30
2017-11-09T14:52:04.804Z,6.30
2017-11-09T14:54:32.281Z,6.40
2017-11-09T14:56:59.774Z,6.40
2017-11-09T14:59:27.281Z,6.30
2017-11-09T15:01:54.814Z,6.30
2017-11-09T15:04:23.054Z,6.30
2017-11-09T15:06:50.561Z,6.20
2017-11-09T15:09:18.020Z,6.30
2017-11-09T15:11:45.496Z,6.20
2017-11-09T15:14:13.023Z,6.20
2017-11-09T15:16:41.281Z,6.10
2017-11-09T15:19:09.564Z,6.10
2017-11-09T15:21:37.805Z,6.10
2017-11-09T15:24:05.312Z,6.10
2017-11-09T15:26:33.559Z,6.00
2017-11-09T15:29:01.046Z,6.00
2017-11-09T15:31:29.329Z,6.00
2017-11-09T15:33:57.559Z,6.00
2017-11-09T15:36:29.048Z,6.00
2017-11-09T15:38:58.180Z,6.10
2017-11-09T15:41:25.702Z,6.10
2017-11-09T15:43:54.017Z,6.10
2017-11-09T15:46:21.505Z,6.10
2017-11-09T15:48:49.025Z,6.10
2017-11-09T15:51:16.511Z,6.10
2017-11-09T15:53:44.004Z,6.10
2017-11-09T15:56:11.548Z,6.10
2017-11-09T15:58:39.088Z,6.10
2017-11-09T16:01:06.590Z,6.20
2017-11-09T16:03:34.857Z,6.20
2017-11-09T16:06:02.376Z,6.20
2017-11-09T16:08:29.840Z,6.30
2017-11-09T16:10:57.553Z,6.30
2017-11-09T16:13:25.788Z,6.10
2017-11-09T16:15:53.331Z,6.10
2017-11-09T16:18:20.805Z,6.20
2017-11-09T16:20:48.281Z,6.10
2017-11-09T16:23:15.784Z,6.10
2017-11-09T16:25:43.278Z,6.10
2017-11-09T16:28:10.763Z,6.10
2017-11-09T16:30:38.249Z,6.10
2017-11-09T16:33:06.544Z,6.00
2017-11-09T16:35:34.041Z,6.00
2017-11-09T16:38:01.543Z,6.00
2017-11-09T16:40:29.785Z,5.90
2017-11-09T16:42:57.288Z,5.90
2017-11-09T16:55:56.156Z,6.00
2017-11-09T16:58:24.507Z,5.90
2017-11-09T17:00:51.979Z,5.90
2017-11-09T17:03:20.245Z,5.80
2017-11-09T17:05:48.508Z,5.80
2017-11-09T17:08:15.989Z,5.80
2017-11-09T17:10:44.244Z,5.80
2017-11-09T17:13:11.774Z,5.80
2017-11-09T17:15:39.253Z,5.80
2017-11-09T17:18:12.440Z,5.80
2017-11-09T17:20:39.916Z,5.80
2017-11-09T17:23:08.185Z,5.80
2017-11-09T17:25:35.673Z,5.80
2017-11-09T17:28:03.172Z,5.70
2017-11-09T17:30:30.649Z,5.70
2017-11-09T17:32:58.135Z,5.70
2017-11-09T17:35:26.409Z,5.70
2017-11-09T17:37:53.881Z,5.70
2017-11-09T17:40:24.048Z,5.80
2017-11-09T17:42:54.088Z,5.70
2017-11-09T17:45:21.589Z,5.70
2017-11-09T17:47:49.090Z,5.70
2017-11-09T17:50:16.593Z,5.70
2017-11-09T17:52:44.885Z,5.70
2017-11-09T17:55:12.433Z,5.70
2017-11-09T17:57:40.701Z,5.70
2017-11-09T18:00:17.552Z,5.70
2017-11-09T18:02:45.075Z,5.60
2017-11-09T18:05:12.548Z,5.70
2017-11-09T18:07:40.091Z,5.70
2017-11-09T18:10:07.568Z,5.70
2017-11-09T18:12:35.076Z,5.60
2017-11-09T18:15:03.346Z,5.80
2017-11-09T18:17:30.834Z,5.80
2017-11-09T18:19:58.366Z,5.80
2017-11-09T18:22:27.585Z,5.90
2017-11-09T18:24:55.078Z,5.90
2017-11-09T18:27:22.593Z,5.80
2017-11-09T18:29:50.825Z,5.80
2017-11-09T18:32:18.355Z,5.80
2017-11-09T18:34:45.833Z,5.80
2017-11-09T18:37:13.309Z,5.70
2017-11-09T18:39:40.832Z,5.70
2017-11-09T18:42:08.296Z,5.60
2017-11-09T18:44:35.797Z,5.60
2017-11-09T18:47:03.286Z,5.60
2017-11-09T18:49:31.547Z,5.60
2017-11-09T18:51:59.795Z,5.70
2017-11-09T18:54:27.305Z,5.70
2017-11-09T18:56:54.849Z,5.80
2017-11-09T18:59:24.004Z,5.80
2017-11-09T19:01:51.515Z,5.80
2017-11-09T19:04:19.013Z,5.60
2017-11-09T19:06:46.491Z,5.60
2017-11-09T19:09:14.012Z,5.60
2017-11-09T19:11:41.503Z,5.60
2017-11-09T19:14:09.027Z,5.70
2017-11-09T19:16:36.518Z,5.70
2017-11-09T19:19:04.028Z,5.80
2017-11-09T19:21:32.272Z,5.80
2017-11-09T19:23:59.753Z,5.80
2017-11-09T19:26:28.038Z,5.80
2017-11-09T19:28:56.274Z,5.60
2017-11-09T19:31:23.797Z,5.60
2017-11-09T19:33:51.307Z,5.60
2017-11-09T19:36:19.670Z,5.50
2017-11-09T19:38:47.143Z,5.50
2017-11-09T19:41:14.608Z,5.50
2017-11-09T19:43:42.983Z,5.40
2017-11-09T19:46:11.246Z,5.40
2017-11-09T19:48:38.728Z,5.40
2017-11-09T19:51:07.079Z,5.40
2017-11-09T19:53:34.614Z,5.40
2017-11-09T19:56:02.228Z,5.50
2017-11-09T20:11:34.777Z,5.60
2017-11-09T20:14:02.279Z,5.50
2017-11-09T20:16:29.760Z,5.50
2017-11-09T20:18:57.273Z,5.40
2017-11-09T20:21:25.592Z,5.50
2017-11-09T20:23:53.121Z,5.50
2017-11-09T20:26:21.425Z,5.30
2017-11-09T20:28:48.908Z,5.30
2017-11-09T20:31:16.461Z,5.20
2017-11-09T20:33:43.957Z,5.20
2017-11-09T20:49:17.248Z,5.30
2017-11-09T20:51:46.349Z,5.20
2017-11-09T20:54:14.613Z,5.20
2017-11-09T20:56:42.112Z,5.20
2017-11-09T20:59:09.607Z,5.20
2017-11-09T21:01:37.241Z,5.10
2017-11-09T21:04:04.835Z,4.90
2017-11-09T21:06:32.915Z,4.80
2017-11-09T21:09:00.512Z,4.70
2017-11-09T21:11:28.653Z,4.50
2017-11-09T21:13:56.129Z,4.40
2017-11-09T21:16:24.416Z,4.50
2017-11-09T21:18:52.663Z,4.60
2017-11-09T21:21:20.158Z,4.60
2017-11-09T21:23:48.386Z,4.70
2017-11-09T21:26:15.888Z,4.80
2017-11-09T21:28:44.152Z,4.80
2017-11-09T21:44:18.403Z,5.00
2017-11-09T21:46:45.874Z,4.90
2017-11-09T21:49:13.429Z,5.00
2017-11-09T21:51:41.809Z,5.00
2017-11-09T21:54:09.384Z,5.00
2017-11-09T21:56:36.861Z,5.10
2017-11-09T21:59:04.374Z,5.10
2017-11-09T22:01:31.919Z,5.10
2017-11-09T22:03:59.399Z,5.10
2017-11-09T22:06:26.906Z,5.10
2017-11-09T22:08:54.380Z,5.10
2017-11-09T22:11:22.710Z,5.10
2017-11-09T22:13:50.388Z,5.10
2017-11-09T22:16:17.883Z,5.20
2017-11-09T22:18:46.165Z,5.20
2017-11-09T22:21:14.685Z,5.30
2017-11-09T22:23:42.267Z,5.30
2017-11-09T22:26:09.947Z,5.30
2017-11-09T22:28:37.510Z,5.30
2017-11-09T22:31:05.041Z,5.30
2017-11-09T22:33:32.505Z,5.30
2017-11-09T22:35:59.997Z,5.30
2017-11-09T22:38:28.269Z,5.30
2017-11-09T22:40:56.584Z,5.30
2017-11-09T22:43:24.081Z,5.20
2017-11-09T22:45:51.577Z,5.30
2017-11-09T22:48:19.805Z,5.30
2017-11-09T22:50:47.280Z,5.30
2017-11-09T22:53:14.817Z,5.30
2017-11-09T22:55:42.300Z,5.30
2017-11-09T22:58:09.772Z,5.30
2017-11-09T23:00:38.039Z,5.20
2017-11-09T23:03:05.534Z,5.20
2017-11-09T23:05:33.026Z,5.30
2017-11-09T23:08:00.495Z,5.30
2017-11-09T23:10:28.004Z,5.30
2017-11-09T23:12:55.496Z,5.30
2017-11-09T23:15:22.977Z,5.30
2017-11-09T23:17:50.471Z,5.30
2017-11-09T23:20:18.724Z,5.30
2017-11-09T23:22:46.217Z,5.30
2017-11-09T23:25:13.691Z,5.30
2017-11-09T23:27:41.203Z,5.30
2017-11-09T23:30:08.674Z,5.30
2017-11-09T23:32:36.901Z,5.20
2017-11-09T23:35:04.408Z,5.20
2017-11-09T23:37:32.653Z,5.30
2017-11-09T23:40:00.140Z,5.30
2017-11-09T23:42:28.376Z,5.30
2017-11-09T23:44:55.844Z,5.30
2017-11-09T23:47:23.353Z,5.30
2017-11-09T23:49:52.016Z,5.20
2017-11-09T23:52:19.521Z,5.20
2017-11-09T23:54:46.988Z,5.30
2017-11-09T23:57:14.496Z,5.30
2017-11-09T23:59:42.741Z,5.30
